Canaan Valley, West Virginia
Current Conditions -  °F | °C
As of 9:15 AM on Sunday 25 Jan 2015 (Local Time) from KW99 Reporting Station
Overcast Overcast  
Wind Chill: 42°   Ceiling: 4000
Heat Index: 42°   Visibility: 10mi
Dew Point: 28°   Wind: 3mph
Humidity: 57%   Direction: 190°S
Pressure: 29.81"   Gusts: NA
Location:  39.0849°N, 79.4037°W
Report Text: KW99 251415Z AUTO 19003KT 10SM OVC040 06/M02 A2981 RMK AO2 T00571022
Loading
Personal Weather Stations






























Interactive Weather Map New forecast layout! Learn more

10-Day Weather Forecast

Advertisements
Track Severe Weather on mobile